Detall de PIREP

Printer-friendly versionPDF version

[2011/05/19 16:30:00]
Flight IATA:CT2106
Pilot Number:042
Company ICAO:CAT
Aircraft Type:F100/F
PAX:50
Aircraft Registration:DA
Departing Airport: LEVC
Destination Airport: LEMD
Alternate Airport:LEMG
Online: VATSIM
Route:CENTA A33 PRADO
Flight Level:F230
No Slew and time accel
No pause
Crash detect
Detect pilot in Cockpit between each 30 and 45 minutes
16:30 Zero fuel Weight: 80840 Lbs, Fuel Weight: 23377 Lbs
16:30 VATSIM:LEVC 191600Z 06011KT 020V080 9999 SCT021 BKN030 20/15 Q1016 NOSIG
16:30 VATSIM:LEMD 191600Z 14009KT 9999 BKN070 18/09 Q1016 NOSIG
16:30 VOICE CATALONIAN
16:31 Parking Brakes off
16:43 Take-off
16:43 Take off Weight: 103431 Lbs
16:43 Wind: 054 @ 011 Knots Heading: 112
16:43 POS N39 29 16 W000 28 41
16:43 Gear Up: 176 Knots
16:43 Flaps:2 at 176 Knots
16:43 Flaps:1 at 190 Knots
16:45 Flaps:0 at 235 Knots
16:58 Wind:081@009 Knots Heading: 300 Ground Speed: 336 Knots Altitude 20738 ft
16:59 TOC
16:59 Fuel Weight: 20416 Lb
17:04 TOD
17:04 Fuel Weight: 19845 Lb
17:13 Wind:035@010 Knots Heading: 302 Ground Speed: 289 Knots Altitude 10672 ft
17:19 Flaps:1 at 191 Knots
17:21 Flaps:2 at 183 Knots
17:22 Flaps:3 at 172 Knots
17:25 Flaps:4 at 160 Knots
17:25 Gear Down: 160 Knots
17:28 Wind:125@005 Knots Heading: 178 Ground Speed: 156 Knots Altitude 2664 ft
17:28 TouchDown:Rate -296 ft/min Speed: 133 Knots
17:29 VATSIM:LEMD 191700Z 09005KT 040V130 9999 BKN068 18/08 Q1016 NOSIG
17:29 Land
17:29 Wind:104@005 Knots
17:29 Heading: 180
17:29 Flight Duration: 00:46
17:29 Landing Weight: 99253 Lbs
17:29 POS N40 30 36 W003 33 32
17:32 Parking brakes on
17:32 Block to Block Duration: 01:01
17:32 Final Fuel: 18267 Lbls
17:32 Spent Fuel: 5110 Lbls
17:32 Flight Length: 219 NM
17:32 TOD Land Length: 104 NM

Exportar CSV

Powered by Drupal - Modified by Danger4k